createdAt,value
2023-03-17T00:00:58.158Z,25.01
2023-03-17T00:39:59.248Z,25.04
2023-03-17T00:40:59.294Z,25.04
2023-03-17T00:41:59.329Z,25.04
2023-03-17T00:49:59.640Z,24.98
2023-03-17T00:50:59.680Z,24.99
2023-03-17T00:51:59.704Z,25.04
2023-03-17T00:52:59.745Z,25.00
2023-03-17T00:53:59.795Z,25.02
2023-03-17T00:54:59.820Z,25.06
2023-03-17T00:55:59.865Z,25.06
2023-03-17T00:56:59.917Z,25.05
2023-03-17T00:57:59.946Z,25.01
2023-03-17T00:58:59.968Z,25.04
2023-03-17T01:00:00.038Z,25.05
2023-03-17T01:01:00.112Z,25.08
2023-03-17T01:02:00.181Z,25.04
2023-03-17T01:03:00.157Z,25.04
2023-03-17T01:04:00.198Z,25.02
2023-03-17T01:05:06.345Z,24.98
2023-03-17T01:06:01.224Z,25.04
2023-03-17T01:07:00.212Z,25.05
2023-03-17T01:08:00.173Z,25.02
2023-03-17T01:09:00.157Z,25.09
2023-03-17T01:10:00.168Z,25.08
2023-03-17T01:11:00.133Z,25.02
2023-03-17T01:12:00.127Z,25.04
2023-03-17T01:13:00.107Z,25.06
2023-03-17T01:14:00.041Z,25.08
2023-03-17T01:15:00.102Z,25.04
2023-03-17T01:16:00.114Z,25.09
2023-03-17T01:17:00.112Z,25.11
2023-03-17T01:18:00.158Z,25.00
2023-03-17T01:19:00.242Z,24.99
2023-03-17T01:20:00.263Z,25.05
2023-03-17T01:21:00.320Z,25.09
2023-03-17T01:22:00.328Z,25.15
2023-03-17T01:23:00.328Z,25.08
2023-03-17T01:24:00.369Z,25.11
2023-03-17T01:25:00.389Z,25.11
2023-03-17T01:26:00.425Z,25.09
2023-03-17T01:27:00.465Z,25.09
2023-03-17T01:28:00.483Z,25.04
2023-03-17T01:29:00.517Z,25.08
2023-03-17T01:30:00.563Z,25.05
2023-03-17T01:31:00.616Z,25.08
2023-03-17T01:32:00.687Z,25.06
2023-03-17T01:33:00.729Z,25.08
2023-03-17T01:34:00.812Z,25.09
2023-03-17T01:35:00.826Z,25.06
2023-03-17T01:36:00.827Z,25.05
2023-03-17T01:37:00.835Z,25.06
2023-03-17T01:38:00.868Z,25.11
2023-03-17T01:39:00.889Z,25.04
2023-03-17T01:40:00.899Z,25.09
2023-03-17T01:41:01.001Z,25.12
2023-03-17T01:42:00.967Z,25.11
2023-03-17T01:43:01.317Z,25.09
2023-03-17T01:44:01.089Z,25.08
2023-03-17T01:45:01.080Z,25.11
2023-03-17T01:46:01.225Z,25.09
2023-03-17T01:47:01.163Z,25.09
2023-03-17T01:48:01.154Z,25.12
2023-03-17T01:49:01.168Z,25.08
2023-03-17T01:50:01.198Z,25.11
2023-03-17T01:51:01.190Z,25.05
2023-03-17T01:52:01.178Z,25.14
2023-03-17T01:53:01.299Z,25.12
2023-03-17T01:54:01.225Z,25.14
2023-03-17T01:55:01.219Z,25.11
2023-03-17T01:56:01.193Z,25.12
2023-03-17T01:57:01.198Z,25.14
2023-03-17T01:58:01.252Z,25.12
2023-03-17T01:59:01.228Z,25.16
2023-03-17T02:00:01.253Z,25.18
2023-03-17T02:01:01.370Z,25.20
2023-03-17T02:02:01.423Z,25.15
2023-03-17T02:03:01.376Z,25.12
2023-03-17T02:04:01.423Z,25.15
2023-03-17T02:05:01.472Z,25.12
2023-03-17T02:06:01.513Z,25.14
2023-03-17T02:07:01.537Z,25.14
2023-03-17T02:08:01.576Z,25.12
2023-03-17T02:09:01.675Z,25.15
2023-03-17T02:10:02.394Z,25.14
2023-03-17T02:11:01.693Z,25.18
2023-03-17T02:12:01.744Z,25.11
2023-03-17T02:13:01.762Z,25.11
2023-03-17T02:14:01.791Z,25.12
2023-03-17T02:15:01.830Z,25.16
2023-03-17T02:16:01.857Z,25.12
2023-03-17T02:17:01.883Z,25.12
2023-03-17T02:18:01.921Z,25.12
2023-03-17T02:19:01.944Z,25.12
2023-03-17T02:20:01.954Z,25.11
2023-03-17T02:21:01.987Z,25.13
2023-03-17T02:22:02.010Z,25.13
2023-03-17T02:23:02.038Z,25.09
2023-03-17T02:24:02.087Z,25.15
2023-03-17T02:25:02.098Z,25.11
2023-03-17T02:26:02.136Z,25.09
2023-03-17T02:27:02.222Z,25.09
2023-03-17T02:28:02.189Z,25.14
2023-03-17T02:29:02.227Z,25.14
2023-03-17T02:30:02.262Z,25.12
2023-03-17T02:31:02.423Z,25.15
2023-03-17T02:32:02.335Z,25.14
2023-03-17T02:33:02.380Z,25.15
2023-03-17T02:34:02.388Z,25.16
2023-03-17T02:35:02.434Z,25.14
2023-03-17T02:36:02.577Z,25.13
2023-03-17T02:37:02.602Z,25.12
2023-03-17T02:38:02.563Z,25.14
2023-03-17T02:39:02.842Z,25.09
2023-03-17T02:40:02.662Z,25.12
2023-03-17T02:41:02.665Z,25.18
2023-03-17T02:42:02.668Z,25.15
2023-03-17T02:43:02.728Z,25.20
2023-03-17T02:44:02.752Z,25.18
2023-03-17T02:45:02.793Z,25.15
2023-03-17T02:46:02.810Z,25.15
2023-03-17T02:47:02.837Z,25.18
2023-03-17T05:05:07.985Z,24.73
2023-03-17T05:06:08.030Z,24.68
2023-03-17T05:07:08.069Z,24.73
2023-03-17T05:08:08.107Z,24.67
2023-03-17T05:09:08.151Z,24.68
2023-03-17T05:10:08.401Z,24.66
2023-03-17T05:11:08.225Z,24.64
2023-03-17T05:12:08.265Z,24.66
2023-03-17T05:13:08.304Z,24.67
2023-03-17T05:14:08.352Z,24.67
2023-03-17T05:15:08.384Z,24.70
2023-03-17T05:16:08.457Z,24.64
2023-03-17T05:17:08.461Z,24.68
2023-03-17T05:18:08.511Z,24.66
2023-03-17T05:19:08.628Z,24.67
2023-03-17T05:20:08.591Z,24.64
2023-03-17T05:21:08.630Z,24.67
2023-03-17T05:22:08.671Z,24.66
2023-03-17T05:23:08.714Z,24.64
2023-03-17T05:24:08.755Z,24.67
2023-03-17T05:25:08.797Z,24.63
2023-03-17T05:26:08.843Z,24.60
2023-03-17T05:27:08.884Z,24.63
2023-03-17T05:28:09.901Z,24.55
2023-03-17T05:29:09.010Z,24.63
2023-03-17T05:30:09.006Z,24.60
2023-03-17T05:31:10.959Z,24.61
2023-03-17T05:32:09.088Z,24.64
2023-03-17T05:33:09.125Z,24.61
2023-03-17T05:34:09.903Z,24.64
2023-03-17T05:35:09.214Z,24.64
2023-03-17T05:36:09.329Z,24.63
2023-03-17T05:37:09.299Z,24.63
2023-03-17T05:38:09.361Z,24.66
2023-03-17T05:39:09.903Z,24.63
2023-03-17T05:40:09.424Z,24.64
2023-03-17T05:41:09.473Z,24.64
2023-03-17T05:42:09.506Z,24.63
2023-03-17T05:43:09.550Z,24.67
2023-03-17T05:44:09.599Z,24.64
2023-03-17T05:45:09.629Z,24.64
2023-03-17T05:46:09.726Z,24.67
2023-03-17T05:47:09.718Z,24.66
2023-03-17T05:48:09.751Z,24.60
2023-03-17T05:49:09.796Z,24.68
2023-03-17T05:50:09.856Z,24.66
2023-03-17T05:51:09.891Z,24.67
2023-03-17T05:52:09.938Z,24.63
2023-03-17T05:53:09.988Z,24.67
2023-03-17T05:54:10.025Z,24.67
2023-03-17T05:55:10.069Z,24.62
2023-03-17T05:56:10.117Z,24.64
2023-03-17T05:57:10.176Z,24.63
2023-03-17T05:58:10.216Z,24.61
2023-03-17T05:59:10.253Z,24.70
2023-03-17T06:00:12.423Z,24.63
2023-03-17T06:01:10.994Z,24.70
2023-03-17T06:02:10.387Z,24.64
2023-03-17T06:03:10.477Z,24.68
2023-03-17T06:04:10.455Z,24.66
2023-03-17T06:05:10.497Z,24.70
2023-03-17T06:06:10.546Z,24.67
2023-03-17T06:07:10.588Z,24.69
2023-03-17T06:08:10.631Z,24.72
2023-03-17T06:09:10.674Z,24.66
2023-03-17T06:10:10.706Z,24.63
2023-03-17T06:11:10.813Z,24.66
2023-03-17T06:12:10.803Z,24.66
2023-03-17T06:13:10.842Z,24.64
2023-03-17T06:14:10.893Z,24.69
2023-03-17T06:15:10.936Z,24.68
2023-03-17T06:16:11.026Z,24.64
2023-03-17T06:17:11.027Z,24.67
2023-03-17T06:18:11.105Z,24.69
2023-03-17T06:19:11.114Z,24.66
2023-03-17T06:20:11.165Z,24.67
2023-03-17T06:21:11.223Z,24.73
2023-03-17T06:22:11.258Z,25.58
2023-03-17T06:23:11.296Z,25.01
2023-03-17T06:24:11.342Z,24.89
2023-03-17T06:25:11.373Z,24.93
2023-03-17T06:27:11.460Z,25.90
2023-03-17T06:28:11.499Z,25.96
2023-03-17T06:29:11.526Z,26.39
2023-03-17T06:30:11.571Z,26.59
2023-03-17T06:31:11.638Z,26.57
2023-03-17T06:32:20.201Z,27.16
2023-03-17T06:33:12.632Z,27.52
2023-03-17T06:34:12.430Z,27.27
2023-03-17T18:44:18.222Z,28.39
2023-03-17T18:54:17.985Z,28.36
2023-03-17T18:55:18.009Z,28.31
2023-03-17T18:56:18.069Z,28.32
2023-03-17T18:57:18.080Z,28.29
2023-03-17T18:58:18.118Z,28.31
2023-03-17T18:59:18.179Z,28.34
2023-03-17T19:00:18.184Z,28.36
2023-03-17T19:01:18.302Z,28.35
2023-03-17T19:02:18.256Z,28.35
2023-03-17T19:03:18.325Z,28.38
2023-03-17T19:04:18.332Z,28.35
2023-03-17T19:05:18.362Z,28.32
2023-03-17T19:06:18.405Z,28.31
2023-03-17T19:07:18.465Z,28.41
2023-03-17T19:08:18.495Z,28.34
2023-03-17T19:09:18.534Z,28.33
2023-03-17T19:10:18.575Z,28.34
2023-03-17T19:11:18.608Z,28.32
2023-03-17T19:12:18.657Z,28.41
2023-03-17T19:15:18.775Z,28.30
2023-03-17T19:16:18.841Z,28.41
2023-03-17T19:17:18.845Z,28.44
2023-03-17T19:18:18.895Z,28.42
2023-03-17T19:19:18.973Z,28.36
2023-03-17T19:20:19.783Z,28.36
2023-03-17T19:21:19.000Z,28.35
2023-03-17T19:22:19.035Z,28.38
2023-03-17T19:23:19.075Z,28.41
2023-03-17T19:24:19.118Z,28.45
2023-03-17T19:26:19.231Z,28.39
2023-03-17T19:27:19.738Z,28.39
2023-03-17T19:28:19.269Z,28.35
2023-03-17T19:29:19.314Z,28.38
2023-03-17T19:30:19.348Z,28.39
2023-03-17T19:31:19.425Z,28.42
2023-03-17T19:32:19.418Z,28.43
2023-03-17T19:33:19.454Z,28.42
2023-03-17T19:34:19.504Z,28.38
2023-03-17T19:35:19.546Z,28.34
2023-03-17T19:36:19.594Z,28.38
2023-03-17T19:37:19.630Z,28.36
2023-03-17T19:38:19.667Z,28.45
2023-03-17T19:39:19.706Z,28.40
2023-03-17T19:40:19.758Z,28.41
2023-03-17T19:41:19.782Z,28.40
2023-03-17T19:42:19.815Z,28.36
2023-03-17T19:43:36.848Z,28.39
2023-03-17T19:46:19.851Z,28.33
2023-03-17T23:30:28.374Z,28.36
2023-03-17T23:50:27.982Z,28.38
2023-03-17T23:52:27.984Z,28.37
2023-03-17T23:53:28.038Z,28.36
2023-03-17T23:54:28.033Z,28.38
2023-03-17T23:55:28.027Z,28.37
2023-03-17T23:56:28.064Z,28.40
2023-03-17T23:57:28.847Z,28.42
2023-03-17T23:58:28.090Z,28.34
2023-03-17T23:59:28.112Z,28.40
